createdAt,value
2023-02-23T00:00:47.285Z,10.71
2023-02-23T00:03:49.742Z,10.73
2023-02-23T00:06:52.208Z,10.73
2023-02-23T00:09:53.647Z,10.70
2023-02-23T00:12:55.029Z,10.66
2023-02-23T00:15:56.447Z,10.65
2023-02-23T00:19:00.277Z,10.65
2023-02-23T00:22:01.759Z,10.70
2023-02-23T00:25:08.584Z,10.69
2023-02-23T00:28:10.066Z,10.66
2023-02-23T00:31:11.799Z,10.67
2023-02-23T00:34:15.377Z,10.65
2023-02-23T00:37:18.347Z,10.63
2023-02-23T00:40:23.740Z,10.65
2023-02-23T00:43:25.263Z,10.63
2023-02-23T00:46:29.854Z,10.56
2023-02-23T00:49:32.483Z,10.57
2023-02-23T00:52:33.927Z,10.55
2023-02-23T00:55:41.290Z,10.56
2023-02-23T00:58:42.964Z,10.53
2023-02-23T01:01:44.907Z,10.53
2023-02-23T01:04:46.349Z,10.56
2023-02-23T01:07:49.005Z,10.52
2023-02-23T01:10:53.987Z,10.53
2023-02-23T01:13:57.579Z,10.53
2023-02-23T01:16:59.984Z,10.54
2023-02-23T01:20:01.366Z,10.54
2023-02-23T01:23:04.014Z,10.54
2023-02-23T01:26:05.464Z,10.51
2023-02-23T01:29:13.141Z,10.51
2023-02-23T01:32:14.610Z,10.51
2023-02-23T01:35:16.049Z,10.49
2023-02-23T01:38:18.707Z,10.48
2023-02-23T01:41:26.825Z,10.48
2023-02-23T01:44:31.318Z,10.50
2023-02-23T01:47:32.826Z,10.47
2023-02-23T01:50:52.621Z,10.45
2023-02-23T01:54:01.072Z,10.44
2023-02-23T01:57:04.874Z,10.45
2023-02-23T02:00:13.013Z,10.45
2023-02-23T02:03:24.119Z,10.44
2023-02-23T02:06:29.952Z,10.43
2023-02-23T02:09:37.741Z,10.43
2023-02-23T02:12:40.766Z,10.41
2023-02-23T02:15:57.134Z,10.43
2023-02-23T02:19:10.178Z,10.43
2023-02-23T02:22:48.103Z,10.46
2023-02-23T02:25:58.591Z,10.45
2023-02-23T02:29:21.940Z,10.46
2023-02-23T02:32:55.999Z,10.46
2023-02-23T02:36:27.974Z,10.46
2023-02-23T02:40:17.078Z,10.46
2023-02-23T02:43:40.634Z,10.44
2023-02-23T02:46:51.931Z,10.45
2023-02-23T02:50:14.875Z,10.48
2023-02-23T02:53:34.524Z,10.47
2023-02-23T02:56:40.330Z,10.47
2023-02-23T03:00:06.227Z,10.47
2023-02-23T03:04:05.496Z,10.48
2023-02-23T03:07:49.997Z,10.46
2023-02-23T03:11:30.991Z,10.44
2023-02-23T03:15:29.941Z,10.41
2023-02-23T03:19:00.689Z,10.41
2023-02-23T03:22:28.809Z,10.39
2023-02-23T03:26:24.182Z,10.37
2023-02-23T03:30:07.368Z,10.35
2023-02-23T03:33:36.372Z,10.38
2023-02-23T03:37:02.139Z,10.42
2023-02-23T03:40:40.119Z,10.35
2023-02-23T03:44:15.558Z,10.37
2023-02-23T03:47:39.750Z,10.36
2023-02-23T03:51:05.831Z,10.35
2023-02-23T03:54:35.706Z,10.38
2023-02-23T03:57:58.027Z,10.38
2023-02-23T04:01:21.868Z,10.36
2023-02-23T04:04:44.167Z,10.35
2023-02-23T04:08:06.081Z,10.32
2023-02-23T04:11:34.961Z,10.37
2023-02-23T04:14:59.281Z,10.32
2023-02-23T04:18:00.830Z,10.32
2023-02-23T04:21:03.365Z,10.37
2023-02-23T04:24:04.924Z,10.33
2023-02-23T04:27:06.336Z,10.37
2023-02-23T04:30:11.368Z,10.33
2023-02-23T04:33:12.922Z,10.31
2023-02-23T04:36:14.325Z,10.32
2023-02-23T04:39:15.702Z,10.36
2023-02-23T04:42:18.082Z,10.35
2023-02-23T04:45:20.008Z,10.32
2023-02-23T04:48:21.406Z,10.32
2023-02-23T04:51:22.806Z,10.32
2023-02-23T04:54:24.201Z,10.32
2023-02-23T04:57:25.609Z,10.32
2023-02-23T05:00:29.260Z,10.35
2023-02-23T05:03:30.652Z,10.37
2023-02-23T05:06:32.625Z,10.32
2023-02-23T05:09:34.905Z,10.35
2023-02-23T05:12:36.322Z,10.33
2023-02-23T05:15:38.629Z,10.28
2023-02-23T05:18:40.146Z,10.32
2023-02-23T05:21:41.801Z,10.30
2023-02-23T05:24:43.171Z,10.34
2023-02-23T05:27:44.581Z,10.40
2023-02-23T05:30:46.017Z,10.37
2023-02-23T05:33:47.458Z,10.34
2023-02-23T05:36:48.853Z,10.36
2023-02-23T05:39:50.373Z,10.41
2023-02-23T05:42:51.789Z,10.37
2023-02-23T05:45:53.238Z,10.29
2023-02-23T05:49:00.051Z,10.28
2023-02-23T05:52:01.460Z,10.25
2023-02-23T05:55:02.837Z,10.26
2023-02-23T05:58:04.328Z,10.25
2023-02-23T06:01:05.711Z,10.22
2023-02-23T06:04:07.258Z,10.22
2023-02-23T06:07:08.703Z,10.24
2023-02-23T06:10:10.725Z,10.26
2023-02-23T06:13:12.615Z,10.24
2023-02-23T06:16:14.174Z,10.29
2023-02-23T06:19:15.823Z,10.27
2023-02-23T06:22:17.696Z,10.28
2023-02-23T06:25:19.094Z,10.24
2023-02-23T06:28:20.616Z,10.22
2023-02-23T06:31:22.232Z,10.24
2023-02-23T06:34:23.739Z,10.29
2023-02-23T06:37:25.245Z,10.24
2023-02-23T06:40:26.994Z,10.24
2023-02-23T06:43:29.531Z,10.23
2023-02-23T06:46:33.047Z,10.20
2023-02-23T06:49:34.527Z,10.23
2023-02-23T06:52:36.089Z,10.28
2023-02-23T06:55:37.541Z,10.24
2023-02-23T06:58:38.929Z,10.24
2023-02-23T07:01:40.391Z,10.28
2023-02-23T07:04:41.855Z,10.30
2023-02-23T07:07:43.486Z,10.26
2023-02-23T07:10:45.824Z,10.24
2023-02-23T07:13:47.308Z,10.28
2023-02-23T07:16:48.772Z,10.28
2023-02-23T07:19:50.170Z,10.32
2023-02-23T07:22:52.019Z,10.35
2023-02-23T07:25:56.505Z,10.37
2023-02-23T07:28:57.936Z,10.41
2023-02-23T07:31:59.872Z,10.39
2023-02-23T07:35:01.485Z,10.44
2023-02-23T07:38:04.302Z,10.52
2023-02-23T07:41:05.864Z,10.58
2023-02-23T07:44:07.676Z,10.61
2023-02-23T07:47:09.062Z,10.63
2023-02-23T07:50:12.585Z,10.62
2023-02-23T07:53:14.518Z,10.59
2023-02-23T07:56:16.010Z,10.69
2023-02-23T07:59:17.550Z,10.72
2023-02-23T08:02:18.969Z,10.68
2023-02-23T08:05:20.488Z,10.75
2023-02-23T08:08:22.245Z,10.77
2023-02-23T08:11:23.657Z,10.75
2023-02-23T08:14:25.266Z,10.71
2023-02-23T08:17:27.395Z,10.75
2023-02-23T08:20:28.792Z,10.70
2023-02-23T08:23:32.126Z,10.77
2023-02-23T08:26:35.835Z,10.78
2023-02-23T08:29:37.353Z,10.77
2023-02-23T08:32:38.814Z,10.91
2023-02-23T08:35:40.306Z,11.02
2023-02-23T08:38:41.690Z,11.17
2023-02-23T08:41:43.086Z,11.29
2023-02-23T08:44:44.755Z,11.42
2023-02-23T08:47:46.203Z,11.60
2023-02-23T08:50:49.787Z,11.75
2023-02-23T08:53:51.324Z,11.93
2023-02-23T08:56:56.084Z,12.01
2023-02-23T08:59:57.538Z,12.13
2023-02-23T09:02:58.925Z,12.31
2023-02-23T09:06:08.999Z,12.40
2023-02-23T09:09:10.566Z,12.40
2023-02-23T09:12:11.954Z,12.52
2023-02-23T09:15:13.485Z,12.49
2023-02-23T09:18:14.948Z,12.67
2023-02-23T09:21:20.935Z,12.73
2023-02-23T09:24:23.456Z,12.62
2023-02-23T09:27:24.853Z,12.76
2023-02-23T09:30:27.151Z,12.88
2023-02-23T09:33:28.619Z,12.84
2023-02-23T09:36:31.555Z,12.82
2023-02-23T09:39:38.683Z,12.69
2023-02-23T09:42:45.573Z,12.90
2023-02-23T09:45:58.373Z,13.08
2023-02-23T09:49:03.707Z,13.31
2023-02-23T09:52:10.711Z,13.37
2023-02-23T09:55:14.234Z,13.53
2023-02-23T09:58:23.614Z,13.48
2023-02-23T10:01:44.990Z,13.57
2023-02-23T10:04:50.279Z,13.57
2023-02-23T10:07:56.586Z,13.73
2023-02-23T10:11:14.581Z,13.85
2023-02-23T10:14:35.012Z,13.62
2023-02-23T10:17:52.466Z,13.64
2023-02-23T10:21:02.856Z,13.49
2023-02-23T10:24:16.196Z,13.47
2023-02-23T10:27:20.842Z,13.54
2023-02-23T10:30:27.241Z,13.37
2023-02-23T10:33:41.390Z,13.65
2023-02-23T10:36:59.011Z,13.68
2023-02-23T10:40:00.426Z,13.54
2023-02-23T10:43:02.518Z,13.61
2023-02-23T10:46:05.783Z,13.66
2023-02-23T10:49:16.214Z,13.99
2023-02-23T10:52:34.743Z,14.38
2023-02-23T10:55:36.249Z,14.67
2023-02-23T10:58:47.583Z,14.71
2023-02-23T11:02:01.495Z,14.91
2023-02-23T11:05:05.135Z,15.15
2023-02-23T11:08:29.118Z,15.24
2023-02-23T11:11:30.623Z,15.29
2023-02-23T11:14:32.100Z,15.19
2023-02-23T11:17:36.787Z,15.06
2023-02-23T11:20:41.635Z,15.54
2023-02-23T11:23:43.468Z,15.84
2023-02-23T11:26:47.597Z,15.49
2023-02-23T11:29:52.395Z,15.63
2023-02-23T11:32:57.516Z,15.95
2023-02-23T11:36:01.139Z,15.86
2023-02-23T11:39:23.498Z,15.72
2023-02-23T11:42:33.433Z,15.32
2023-02-23T11:45:51.136Z,15.15
2023-02-23T11:48:59.636Z,15.44
2023-02-23T11:52:02.034Z,16.02
2023-02-23T11:55:07.826Z,16.29
2023-02-23T11:58:47.343Z,15.41
2023-02-23T12:01:54.185Z,15.02
2023-02-23T12:05:07.286Z,15.24
2023-02-23T12:08:19.525Z,15.52
2023-02-23T12:11:28.109Z,15.42
2023-02-23T12:14:37.894Z,15.19
2023-02-23T12:17:46.915Z,15.01
2023-02-23T12:20:54.121Z,15.18
2023-02-23T12:24:06.028Z,15.05
2023-02-23T12:27:42.980Z,14.75
2023-02-23T12:30:59.479Z,14.64
2023-02-23T12:34:22.786Z,14.51
2023-02-23T12:37:30.151Z,14.56
2023-02-23T12:40:35.285Z,14.72
2023-02-23T12:43:49.220Z,14.78
2023-02-23T12:46:54.784Z,14.30
2023-02-23T12:50:13.256Z,14.21
2023-02-23T12:53:43.767Z,14.32
2023-02-23T12:56:57.959Z,14.47
2023-02-23T13:00:41.321Z,14.72
2023-02-23T13:04:19.983Z,14.76
2023-02-23T13:07:34.352Z,14.91
2023-02-23T13:10:44.955Z,14.78
2023-02-23T13:14:30.256Z,14.88
2023-02-23T13:17:40.347Z,14.71
2023-02-23T13:20:54.767Z,14.78
2023-02-23T13:23:59.118Z,14.77
2023-02-23T13:27:16.132Z,14.60
2023-02-23T13:30:20.556Z,14.71
2023-02-23T13:33:41.967Z,14.87
2023-02-23T13:36:45.866Z,14.90
2023-02-23T13:40:15.594Z,15.04
2023-02-23T13:43:32.439Z,15.13
2023-02-23T13:47:00.212Z,15.09
2023-02-23T13:50:54.188Z,15.00
2023-02-23T13:53:58.856Z,14.76
2023-02-23T13:57:05.496Z,14.62
2023-02-23T14:00:18.943Z,14.68
2023-02-23T14:03:24.405Z,14.66
2023-02-23T14:06:29.453Z,14.67
2023-02-23T14:09:35.693Z,14.57
2023-02-23T14:12:42.563Z,14.53
2023-02-23T14:15:53.547Z,14.49
2023-02-23T14:19:03.893Z,14.42
2023-02-23T14:22:10.417Z,14.37
2023-02-23T14:25:33.647Z,14.34
2023-02-23T14:28:38.996Z,14.30
2023-02-23T14:31:57.576Z,14.25
2023-02-23T14:35:01.753Z,14.37
2023-02-23T14:38:46.936Z,14.29
2023-02-23T14:41:53.912Z,14.12
2023-02-23T14:44:57.870Z,13.99
2023-02-23T14:48:05.181Z,14.00
2023-02-23T14:51:20.310Z,14.06
2023-02-23T14:54:30.920Z,14.08
2023-02-23T14:57:36.268Z,14.14
2023-02-23T15:00:42.683Z,14.06
2023-02-23T15:04:14.026Z,14.08
2023-02-23T15:07:25.168Z,14.01
2023-02-23T15:10:29.704Z,13.88
2023-02-23T15:13:39.804Z,13.97
2023-02-23T15:16:44.776Z,13.95
2023-02-23T15:19:48.436Z,13.99
2023-02-23T15:22:54.966Z,14.02
2023-02-23T15:25:56.857Z,13.97
2023-02-23T15:29:10.428Z,13.80
2023-02-23T15:32:18.631Z,13.75
2023-02-23T15:35:20.316Z,13.81
2023-02-23T15:38:42.935Z,13.85
2023-02-23T15:41:49.225Z,13.88
2023-02-23T15:44:57.160Z,13.75
2023-02-23T15:48:03.627Z,13.68
2023-02-23T15:51:06.922Z,13.65
2023-02-23T15:54:23.723Z,13.58
2023-02-23T15:57:34.696Z,13.54
2023-02-23T16:00:41.440Z,13.59
2023-02-23T16:03:54.547Z,13.50
2023-02-23T16:07:07.298Z,13.50
2023-02-23T16:10:20.819Z,13.47
2023-02-23T16:13:22.533Z,13.49
2023-02-23T16:16:25.466Z,13.47
2023-02-23T16:19:29.510Z,13.46
2023-02-23T16:22:32.067Z,13.39
2023-02-23T16:25:34.800Z,13.35
2023-02-23T16:28:42.000Z,13.29
2023-02-23T16:31:49.392Z,13.24
2023-02-23T16:34:57.851Z,13.16
2023-02-23T16:38:02.737Z,13.10
2023-02-23T16:41:05.192Z,13.04
2023-02-23T16:44:13.348Z,13.04
2023-02-23T16:47:23.982Z,13.04
2023-02-23T16:50:25.536Z,13.00
2023-02-23T16:53:27.025Z,12.93
2023-02-23T16:56:30.562Z,12.91
2023-02-23T16:59:32.476Z,12.91
2023-02-23T17:02:35.004Z,12.84
2023-02-23T17:05:36.408Z,12.87
2023-02-23T17:08:41.256Z,12.95
2023-02-23T17:11:47.001Z,13.04
2023-02-23T17:14:49.193Z,13.16
2023-02-23T17:17:53.195Z,13.22
2023-02-23T17:20:56.414Z,13.13
2023-02-23T17:24:02.655Z,13.07
2023-02-23T17:27:04.189Z,13.05
2023-02-23T17:30:06.910Z,13.13
2023-02-23T17:33:09.652Z,13.26
2023-02-23T17:36:14.640Z,13.30
2023-02-23T17:39:16.741Z,13.14
2023-02-23T17:42:18.723Z,13.08
2023-02-23T17:45:20.240Z,13.03
2023-02-23T17:48:22.806Z,13.01
2023-02-23T17:51:24.267Z,12.94
2023-02-23T17:54:27.585Z,12.82
2023-02-23T17:57:30.620Z,12.77
2023-02-23T18:00:37.686Z,12.81
2023-02-23T18:03:39.768Z,12.81
2023-02-23T18:06:45.335Z,12.92
2023-02-23T18:09:49.963Z,12.97
2023-02-23T18:12:53.558Z,13.08
2023-02-23T18:16:02.575Z,13.04
2023-02-23T18:19:04.030Z,13.04
2023-02-23T18:22:07.640Z,12.95
2023-02-23T18:25:19.286Z,12.81
2023-02-23T18:28:23.567Z,12.71
2023-02-23T18:31:30.387Z,12.61
2023-02-23T18:34:31.927Z,12.64
2023-02-23T18:37:33.397Z,12.69
2023-02-23T18:40:35.814Z,12.73
2023-02-23T18:43:38.993Z,12.75
2023-02-23T18:46:42.104Z,12.77
2023-02-23T18:49:43.814Z,12.77
2023-02-23T18:52:50.866Z,12.79
2023-02-23T18:55:52.380Z,12.79
2023-02-23T18:58:59.405Z,12.75
2023-02-23T19:02:00.977Z,12.71
2023-02-23T19:05:03.069Z,12.73
2023-02-23T19:08:08.960Z,12.73
2023-02-23T19:11:11.330Z,12.69
2023-02-23T19:14:18.084Z,12.69
2023-02-23T19:17:19.679Z,12.60
2023-02-23T19:20:23.035Z,12.51
2023-02-23T19:23:24.481Z,12.51
2023-02-23T19:26:27.048Z,12.42
2023-02-23T19:29:28.461Z,12.28
2023-02-23T19:32:30.068Z,12.24
2023-02-23T19:35:31.647Z,12.18
2023-02-23T19:38:34.085Z,12.12
2023-02-23T19:41:37.689Z,12.06
2023-02-23T19:44:39.197Z,12.05
2023-02-23T19:47:40.879Z,12.02
2023-02-23T19:50:47.964Z,12.02
2023-02-23T19:53:49.495Z,12.00
2023-02-23T19:56:51.372Z,11.99
2023-02-23T19:59:52.935Z,12.05
2023-02-23T20:02:56.910Z,12.10
2023-02-23T20:05:58.435Z,12.08
2023-02-23T20:09:01.657Z,12.04
2023-02-23T20:12:03.167Z,11.93
2023-02-23T20:15:05.458Z,11.95
2023-02-23T20:18:07.760Z,11.92
2023-02-23T20:21:13.390Z,11.90
2023-02-23T20:24:15.454Z,11.84
2023-02-23T20:27:17.020Z,11.75
2023-02-23T20:30:19.424Z,11.72
2023-02-23T20:33:20.866Z,11.71
2023-02-23T20:36:23.614Z,11.70
2023-02-23T20:39:26.736Z,11.58
2023-02-23T20:42:28.509Z,11.54
2023-02-23T20:45:29.895Z,11.63
2023-02-23T20:48:33.189Z,11.61
2023-02-23T20:51:34.593Z,11.69
2023-02-23T20:54:36.572Z,11.68
2023-02-23T20:57:38.083Z,11.65
2023-02-23T21:00:39.899Z,11.45
2023-02-23T21:03:41.529Z,11.33
2023-02-23T21:06:43.041Z,11.21
2023-02-23T21:09:45.208Z,11.12
2023-02-23T21:12:46.661Z,11.04
2023-02-23T21:15:58.445Z,10.88
2023-02-23T21:19:05.863Z,10.92
2023-02-23T21:22:07.542Z,10.95
2023-02-23T21:25:11.011Z,10.95
2023-02-23T21:28:12.440Z,10.94
2023-02-23T21:31:14.979Z,10.90
2023-02-23T21:34:19.365Z,10.87
2023-02-23T21:37:20.731Z,10.87
2023-02-23T21:40:23.536Z,10.83
2023-02-23T21:43:27.838Z,10.73
2023-02-23T21:46:29.366Z,10.63
2023-02-23T21:49:30.895Z,10.59
2023-02-23T21:52:32.981Z,10.54
2023-02-23T21:55:38.434Z,10.50
2023-02-23T21:58:47.349Z,10.55
2023-02-23T22:01:48.922Z,10.55
2023-02-23T22:04:50.619Z,10.41
2023-02-23T22:07:54.083Z,10.32
2023-02-23T22:10:55.501Z,10.35
2023-02-23T22:13:59.020Z,10.30
2023-02-23T22:17:00.647Z,10.27
2023-02-23T22:20:05.214Z,10.25
2023-02-23T22:23:06.598Z,10.20
2023-02-23T22:26:09.006Z,10.16
2023-02-23T22:29:10.638Z,10.18
2023-02-23T22:32:12.505Z,10.23
2023-02-23T22:35:14.023Z,10.14
2023-02-23T22:38:18.967Z,10.15
2023-02-23T22:41:20.747Z,10.08
2023-02-23T22:44:22.526Z,10.10
2023-02-23T22:47:24.250Z,10.08
2023-02-23T22:50:25.716Z,10.09
2023-02-23T22:53:28.061Z,10.05
2023-02-23T22:56:29.445Z,10.05
2023-02-23T22:59:30.878Z,10.04
2023-02-23T23:02:32.457Z,10.01
2023-02-23T23:05:33.926Z,9.97
2023-02-23T23:08:40.713Z,9.95
2023-02-23T23:11:42.606Z,9.92
2023-02-23T23:14:45.488Z,9.90
2023-02-23T23:17:49.476Z,9.92
2023-02-23T23:20:50.913Z,9.89
2023-02-23T23:23:55.773Z,9.88
2023-02-23T23:27:01.214Z,9.83
2023-02-23T23:30:05.669Z,9.80
2023-02-23T23:33:08.037Z,9.81
2023-02-23T23:36:10.056Z,9.83
2023-02-23T23:39:12.708Z,9.81
2023-02-23T23:42:14.139Z,9.79
2023-02-23T23:45:18.217Z,9.77
2023-02-23T23:48:21.630Z,9.73
2023-02-23T23:51:27.344Z,9.70
2023-02-23T23:54:30.887Z,9.66
2023-02-23T23:57:33.826Z,9.63
